Time;durP1;ratioP1;P1;durP2;ratioP2;P2;SDS_P1;SDS_P2;PMS_P1;PMS_P2;Temp;Humidity;BMP_temperature;BMP_pressure;BME280_temperature;BME280_humidity;BME280_pressure;Samples;Min_cycle;Max_cycle;Signal;HPM_P1;HPM_P2
2021/11/09 00:00:14;;;;;;;16.37;8.80;;;8.80;99.90;;;;;;5077184;28;20484;-71
2021/11/09 00:02:43;;;;;;;18.50;9.77;;;8.80;99.90;;;;;;5073162;28;20401;-71
2021/11/09 00:05:11;;;;;;;20.53;9.70;;;8.70;99.90;;;;;;5072668;28;20421;-71
2021/11/09 00:10:16;;;;;;;19.60;10.43;;;8.60;99.90;;;;;;5089552;27;20511;-72
2021/11/09 00:12:45;;;;;;;21.47;9.60;;;8.60;99.90;;;;;;5089470;28;20452;-72
2021/11/09 00:15:14;;;;;;;29.37;10.50;;;8.60;99.90;;;;;;5089379;28;20385;-72
2021/11/09 00:17:40;;;;;;;17.00;8.27;;;8.50;99.90;;;;;;5089236;28;20416;-70
2021/11/09 00:20:09;;;;;;;21.20;9.50;;;8.50;99.90;;;;;;5089162;28;20390;-70
2021/11/09 00:22:34;;;;;;;28.93;9.83;;;8.40;99.90;;;;;;5089416;28;20862;-71
2021/11/09 00:25:00;;;;;;;19.10;9.50;;;8.40;99.90;;;;;;5086067;28;20423;-71
2021/11/09 00:27:25;;;;;;;16.03;10.50;;;8.30;99.90;;;;;;5068810;28;20238;-71
2021/11/09 00:29:51;;;;;;;19.60;10.57;;;8.30;99.90;;;;;;5083864;28;20218;-71
2021/11/09 00:32:17;;;;;;;18.63;10.00;;;8.30;99.90;;;;;;5089146;28;20159;-71
2021/11/09 00:34:44;;;;;;;22.00;9.30;;;8.30;99.90;;;;;;5089228;28;20525;-71
2021/11/09 00:37:11;;;;;;;20.30;10.03;;;8.30;99.90;;;;;;5089005;28;20397;-71
2021/11/09 00:39:37;;;;;;;19.20;12.03;;;8.20;99.90;;;;;;5089148;28;20403;-71
2021/11/09 00:42:03;;;;;;;16.70;8.93;;;8.20;99.90;;;;;;5085880;28;20420;-71
2021/11/09 00:44:29;;;;;;;15.20;10.20;;;8.20;99.90;;;;;;5068661;28;20491;-71
2021/11/09 00:46:54;;;;;;;27.13;11.40;;;8.10;99.90;;;;;;5068428;28;20457;-71
2021/11/09 00:49:20;;;;;;;19.60;10.50;;;8.10;99.90;;;;;;5068648;28;20666;-71
2021/11/09 00:51:47;;;;;;;18.63;9.67;;;8.00;99.90;;;;;;5068515;28;20163;-71
2021/11/09 00:54:13;;;;;;;20.67;10.50;;;8.00;99.90;;;;;;5068256;28;20409;-71
2021/11/09 00:56:39;;;;;;;26.93;9.93;;;8.00;99.90;;;;;;5068193;28;20485;-71
2021/11/09 00:59:05;;;;;;;23.40;11.30;;;8.00;99.90;;;;;;5068862;28;20520;-72
2021/11/09 01:01:32;;;;;;;15.53;9.40;;;7.90;99.90;;;;;;5086993;28;20423;-72
2021/11/09 01:03:58;;;;;;;19.30;11.50;;;7.90;99.90;;;;;;5088478;28;20446;-72
2021/11/09 01:06:24;;;;;;;24.47;10.53;;;7.80;99.90;;;;;;5088445;28;20396;-72
2021/11/09 01:08:50;;;;;;;27.13;10.60;;;7.80;99.90;;;;;;5088189;28;21026;-72
2021/11/09 01:11:17;;;;;;;31.97;11.63;;;7.80;99.90;;;;;;5088421;28;20550;-72
2021/11/09 01:13:43;;;;;;;30.30;11.57;;;7.80;99.90;;;;;;5088263;28;20396;-72
2021/11/09 01:16:09;;;;;;;24.60;10.93;;;7.70;99.90;;;;;;5084298;28;20922;-72
2021/11/09 01:18:41;;;;;;;19.77;11.30;;;7.70;99.90;;;;;;5067856;28;20439;-71
2021/11/09 01:21:07;;;;;;;20.67;11.67;;;7.70;99.90;;;;;;5057442;28;20941;-72
2021/11/09 01:23:33;;;;;;;15.47;11.13;;;7.60;99.90;;;;;;5054785;28;20923;-72
2021/11/09 01:26:00;;;;;;;28.47;11.23;;;7.60;99.90;;;;;;5070687;28;20429;-72
2021/11/09 01:28:27;;;;;;;19.23;10.57;;;7.60;99.90;;;;;;5074264;28;20558;-72
2021/11/09 01:30:52;;;;;;;24.07;11.33;;;7.60;99.90;;;;;;5074331;28;20418;-72
2021/11/09 01:33:18;;;;;;;13.40;9.47;;;7.50;99.90;;;;;;5073187;28;20470;-72
2021/11/09 01:35:44;;;;;;;19.90;10.27;;;7.50;99.90;;;;;;5074453;28;20193;-72
2021/11/09 01:38:10;;;;;;;21.70;11.10;;;7.50;99.90;;;;;;5074367;28;20629;-72
2021/11/09 01:40:38;;;;;;;18.53;11.20;;;7.40;99.90;;;;;;5074288;28;20250;-72
2021/11/09 01:43:05;;;;;;;20.23;10.90;;;7.40;99.90;;;;;;5074304;28;20159;-72
2021/11/09 01:45:31;;;;;;;22.10;11.00;;;7.40;99.90;;;;;;5074155;28;20402;-72
2021/11/09 01:47:57;;;;;;;20.70;11.27;;;7.40;99.90;;;;;;5074006;28;20417;-71
2021/11/09 01:50:28;;;;;;;18.33;9.77;;;7.30;99.90;;;;;;5068309;28;20895;-72
2021/11/09 01:52:55;;;;;;;18.30;10.47;;;7.30;99.90;;;;;;5054096;28;20158;-72
2021/11/09 01:55:23;;;;;;;17.17;9.80;;;7.30;99.90;;;;;;5064593;28;20432;-72
2021/11/09 01:57:51;;;;;;;22.93;10.57;;;7.30;99.90;;;;;;5073788;28;20428;-70
2021/11/09 02:00:22;;;;;;;23.10;10.77;;;7.30;99.90;;;;;;5053878;28;20476;-71
2021/11/09 02:02:49;;;;;;;18.90;10.00;;;7.20;99.90;;;;;;5053758;28;20398;-71
2021/11/09 02:05:15;;;;;;;20.40;11.67;;;7.20;99.90;;;;;;5053833;28;20398;-72
2021/11/09 02:07:52;;;;;;;18.73;10.70;;;7.20;99.90;;;;;;5054396;28;20420;-72
2021/11/09 02:10:21;;;;;;;23.20;10.63;;;7.20;99.90;;;;;;5053857;28;20420;-70
2021/11/09 02:12:47;;;;;;;18.63;9.43;;;7.10;99.90;;;;;;5053721;28;20399;-71
2021/11/09 02:15:13;;;;;;;24.87;11.30;;;7.10;99.90;;;;;;5053658;28;20402;-71
2021/11/09 02:17:42;;;;;;;50.90;25.83;;;7.10;99.90;;;;;;5053349;28;20486;-71
2021/11/09 02:20:10;;;;;;;48.20;24.20;;;7.10;99.90;;;;;;5053801;28;20410;-72
2021/11/09 02:22:37;;;;;;;38.93;24.03;;;7.10;99.90;;;;;;5053562;28;20481;-72
2021/11/09 02:25:07;;;;;;;36.70;18.80;;;7.10;99.90;;;;;;5061892;28;20425;-72
2021/11/09 02:27:33;;;;;;;32.73;19.90;;;7.10;99.90;;;;;;5073193;28;20897;-72
2021/11/09 02:29:58;;;;;;;39.43;19.30;;;7.10;99.90;;;;;;5059979;28;20444;-72
2021/11/09 02:32:24;;;;;;;37.37;18.67;;;7.10;99.90;;;;;;5072079;28;20884;-72
2021/11/09 02:34:50;;;;;;;31.70;17.63;;;7.10;99.90;;;;;;5073204;28;20169;-72
2021/11/09 02:37:17;;;;;;;33.83;16.87;;;7.10;99.90;;;;;;5073403;28;20190;-72
2021/11/09 02:39:42;;;;;;;30.43;13.87;;;7.10;99.90;;;;;;5073140;28;20397;-72
2021/11/09 02:42:12;;;;;;;21.60;13.40;;;7.00;99.90;;;;;;5060855;28;20424;-72
2021/11/09 02:44:51;;;;;;;19.87;13.30;;;7.00;99.90;;;;;;5053042;28;20632;-72
2021/11/09 02:47:17;;;;;;;20.37;10.83;;;7.00;99.90;;;;;;5053120;28;20476;-72
2021/11/09 02:52:28;;;;;;;20.00;10.60;;;6.90;99.90;;;;;;5069274;28;20502;-72
2021/11/09 02:55:02;;;;;;;28.20;11.20;;;6.90;99.90;;;;;;5069249;28;20385;-72
2021/11/09 02:57:51;;;;;;;17.83;11.33;;;6.90;99.90;;;;;;5068977;28;20435;-72
2021/11/09 03:00:33;;;;;;;20.97;10.70;;;6.90;99.90;;;;;;5048098;28;20439;-72
2021/11/09 03:03:05;;;;;;;18.03;10.97;;;6.80;99.90;;;;;;5048871;28;20464;-72
2021/11/09 03:08:38;;;;;;;19.47;10.53;;;6.70;99.90;;;;;;5048197;28;20773;-73
2021/11/09 03:11:05;;;;;;;17.10;9.07;;;6.70;99.90;;;;;;5048878;28;20456;-71
2021/11/09 03:13:31;;;;;;;28.57;11.07;;;6.80;99.90;;;;;;5049095;28;20452;-71
2021/11/09 03:16:02;;;;;;;24.07;10.40;;;6.70;99.90;;;;;;5049375;28;20417;-71
2021/11/09 03:18:29;;;;;;;17.70;11.27;;;6.70;99.90;;;;;;5048856;28;20388;-72
2021/11/09 03:40:25;;;;;;;21.77;11.07;;;6.50;99.90;;;;;;5067944;28;20406;-72
2021/11/09 03:45:37;;;;;;;25.73;10.57;;;6.50;99.90;;;;;;5068032;28;20396;-71
2021/11/09 03:48:05;;;;;;;19.97;10.70;;;6.50;99.90;;;;;;5068891;28;20423;-72
2021/11/09 03:50:32;;;;;;;16.37;8.80;;;6.40;99.90;;;;;;5053301;28;20912;-71
2021/11/09 03:53:02;;;;;;;21.97;11.40;;;6.40;99.90;;;;;;5048831;28;20488;-71
2021/11/09 03:55:40;;;;;;;21.70;9.53;;;6.40;99.90;;;;;;5054084;28;20432;-71
2021/11/09 03:58:20;;;;;;;15.43;9.67;;;6.40;99.90;;;;;;5061032;28;20435;-71
2021/11/09 04:00:53;;;;;;;15.73;9.67;;;6.40;99.90;;;;;;5049331;28;20437;-71
2021/11/09 04:06:03;;;;;;;22.97;11.27;;;6.30;99.90;;;;;;5066943;28;20520;-72
2021/11/09 04:11:17;;;;;;;24.83;9.87;;;6.30;99.90;;;;;;5151092;27;20499;-71
2021/11/09 04:13:51;;;;;;;18.90;10.13;;;6.30;99.90;;;;;;5151020;27;20459;-71
2021/11/09 04:19:05;;;;;;;15.50;9.47;;;6.30;99.90;;;;;;5089953;27;20509;-74
2021/11/09 04:39:05;;;;;;;15.43;11.23;;;6.20;99.90;;;;;;5068457;28;20933;-70
2021/11/09 04:42:06;;;;;;;21.43;10.80;;;6.20;99.90;;;;;;5058155;28;20420;-72
2021/11/09 04:45:17;;;;;;;15.67;11.20;;;6.20;99.90;;;;;;5062293;28;20408;-71
2021/11/09 04:47:50;;;;;;;21.20;10.97;;;6.10;99.90;;;;;;5048324;28;20392;-72
2021/11/09 05:08:39;;;;;;;22.53;10.77;;;6.00;99.90;;;;;;5055211;28;20455;-72
2021/11/09 05:11:04;;;;;;;21.00;10.47;;;6.00;99.90;;;;;;5061521;28;20445;-72
2021/11/09 05:13:30;;;;;;;22.53;10.87;;;6.00;99.90;;;;;;5050748;28;20886;-72
2021/11/09 05:15:56;;;;;;;21.37;11.80;;;6.00;99.90;;;;;;5057471;28;20184;-71
2021/11/09 05:18:22;;;;;;;24.97;11.77;;;6.00;99.90;;;;;;5049110;28;20537;-72
2021/11/09 05:20:48;;;;;;;15.23;11.23;;;6.00;99.90;;;;;;5050756;28;20620;-72
2021/11/09 05:23:14;;;;;;;18.40;9.57;;;6.00;99.90;;;;;;5056453;28;20461;-72
2021/11/09 05:25:40;;;;;;;24.23;12.27;;;6.00;99.90;;;;;;5055551;28;21036;-72
2021/11/09 05:28:08;;;;;;;20.83;11.63;;;5.90;99.90;;;;;;5056404;28;20524;-72
2021/11/09 05:30:36;;;;;;;22.60;11.70;;;5.90;99.90;;;;;;5058312;28;20201;-72
2021/11/09 05:33:01;;;;;;;25.80;12.40;;;5.90;99.90;;;;;;5051335;28;20944;-72
2021/11/09 05:35:28;;;;;;;19.13;12.40;;;5.90;99.90;;;;;;5054765;28;20449;-72
2021/11/09 05:37:54;;;;;;;21.80;12.40;;;5.90;99.90;;;;;;5046270;28;20185;-72
2021/11/09 05:40:29;;;;;;;24.10;12.77;;;5.90;99.90;;;;;;5054982;28;20540;-72
2021/11/09 05:42:55;;;;;;;23.80;12.93;;;5.90;99.90;;;;;;5051977;28;20441;-72
2021/11/09 05:45:21;;;;;;;24.97;12.90;;;5.90;99.90;;;;;;5055318;28;20442;-73
2021/11/09 05:47:46;;;;;;;23.83;13.20;;;5.90;99.90;;;;;;5032109;28;21069;-72
2021/11/09 05:50:12;;;;;;;18.53;11.40;;;5.90;99.90;;;;;;5039090;28;20178;-73
2021/11/09 05:52:38;;;;;;;26.60;13.80;;;5.90;99.90;;;;;;5037367;28;20671;-72
2021/11/09 05:55:04;;;;;;;24.33;13.90;;;5.90;99.90;;;;;;5038849;28;20204;-72
2021/11/09 05:57:30;;;;;;;22.50;13.73;;;5.90;99.90;;;;;;5042985;28;20470;-72
2021/11/09 05:59:56;;;;;;;25.63;12.73;;;5.90;99.90;;;;;;5041002;28;20510;-73
2021/11/09 06:02:22;;;;;;;21.87;12.30;;;5.90;99.90;;;;;;5051442;28;20253;-72
2021/11/09 06:04:52;;;;;;;23.40;11.90;;;5.90;99.90;;;;;;5039212;28;20190;-72
2021/11/09 06:07:18;;;;;;;22.10;11.80;;;5.90;99.90;;;;;;5037291;28;20469;-73
2021/11/09 06:09:44;;;;;;;19.33;13.37;;;5.90;99.90;;;;;;5037573;28;20800;-72
2021/11/09 06:12:09;;;;;;;22.63;11.37;;;5.90;99.90;;;;;;5034629;28;20500;-73
2021/11/09 06:14:35;;;;;;;18.90;11.50;;;5.90;99.90;;;;;;5042358;28;20211;-73
2021/11/09 06:17:00;;;;;;;20.90;12.70;;;5.90;99.90;;;;;;5033926;28;20185;-72
2021/11/09 06:19:26;;;;;;;22.17;12.17;;;5.90;99.90;;;;;;5036704;28;20534;-71
2021/11/09 06:21:52;;;;;;;23.40;12.17;;;5.90;99.90;;;;;;5035682;28;20673;-72
2021/11/09 06:24:18;;;;;;;21.10;11.70;;;5.90;99.90;;;;;;5035566;28;20202;-71
2021/11/09 06:26:45;;;;;;;18.80;12.10;;;5.90;99.90;;;;;;5044579;28;20964;-71
2021/11/09 06:29:10;;;;;;;23.20;12.50;;;5.90;99.90;;;;;;5041504;28;20196;-72
2021/11/09 06:31:36;;;;;;;20.63;13.57;;;5.90;99.90;;;;;;5045522;28;20431;-73
2021/11/09 06:34:02;;;;;;;18.73;12.30;;;5.90;99.90;;;;;;5036009;28;20206;-73
2021/11/09 06:36:28;;;;;;;20.33;13.00;;;5.90;99.90;;;;;;5033542;28;20187;-72
2021/11/09 06:38:54;;;;;;;15.67;13.00;;;5.90;99.90;;;;;;5035693;28;20327;-72
2021/11/09 06:41:20;;;;;;;19.73;13.07;;;5.90;99.90;;;;;;5039726;28;20227;-72
2021/11/09 06:43:46;;;;;;;20.00;11.80;;;5.90;99.90;;;;;;5041995;28;20448;-72
2021/11/09 06:46:11;;;;;;;19.90;13.90;;;5.90;99.90;;;;;;5042288;28;20808;-73
2021/11/09 06:48:39;;;;;;;17.17;11.50;;;5.90;99.90;;;;;;5033705;28;20602;-73
2021/11/09 06:51:04;;;;;;;18.83;12.60;;;5.90;99.90;;;;;;5035615;28;20273;-72
2021/11/09 06:53:30;;;;;;;18.73;12.90;;;5.90;99.90;;;;;;5036049;28;20599;-72
2021/11/09 06:55:56;;;;;;;19.70;12.83;;;6.00;99.90;;;;;;5046078;28;20183;-72
2021/11/09 06:58:21;;;;;;;31.07;13.17;;;6.00;99.90;;;;;;5044352;28;20269;-72
2021/11/09 07:00:47;;;;;;;24.47;13.40;;;6.00;99.90;;;;;;5042675;28;20209;-73
2021/11/09 07:03:13;;;;;;;22.47;13.70;;;6.00;99.90;;;;;;5042404;28;20553;-72
2021/11/09 07:05:39;;;;;;;20.27;15.00;;;6.00;99.90;;;;;;5036765;28;20458;-71
2021/11/09 07:08:05;;;;;;;28.67;16.40;;;6.00;99.90;;;;;;5033315;28;20534;-71
2021/11/09 07:10:30;;;;;;;27.20;16.87;;;6.10;99.90;;;;;;5044631;28;20572;-71
2021/11/09 07:12:56;;;;;;;31.10;15.33;;;6.10;99.90;;;;;;5047848;28;20190;-72
2021/11/09 07:15:22;;;;;;;27.27;16.33;;;6.10;99.90;;;;;;5049480;28;20271;-72
2021/11/09 07:17:48;;;;;;;25.60;15.70;;;6.10;99.90;;;;;;5039498;28;20251;-72
2021/11/09 07:20:17;;;;;;;24.97;15.90;;;6.10;99.90;;;;;;5044436;28;20643;-72
2021/11/09 07:22:44;;;;;;;30.60;16.40;;;6.20;99.90;;;;;;5035904;28;20436;-72
2021/11/09 07:25:11;;;;;;;30.53;14.53;;;6.20;99.90;;;;;;5041798;28;20444;-72
2021/11/09 07:27:39;;;;;;;25.77;15.60;;;6.30;99.90;;;;;;5043144;28;20488;-72
2021/11/09 07:30:06;;;;;;;24.70;16.37;;;6.30;99.90;;;;;;5043349;28;20526;-72
2021/11/09 07:32:32;;;;;;;23.67;13.97;;;6.30;99.90;;;;;;5039546;28;20931;-72
2021/11/09 07:34:58;;;;;;;19.80;15.60;;;6.30;99.90;;;;;;5043433;28;21011;-72
2021/11/09 07:37:30;;;;;;;28.60;15.87;;;6.40;99.90;;;;;;5038683;28;20477;-71
2021/11/09 07:39:55;;;;;;;27.77;14.77;;;6.40;99.90;;;;;;5039387;28;20185;-72
2021/11/09 07:42:21;;;;;;;28.10;15.23;;;6.50;99.90;;;;;;5038164;28;20524;-71
2021/11/09 07:44:48;;;;;;;22.40;14.90;;;6.50;99.90;;;;;;5038999;28;20553;-72
2021/11/09 07:47:13;;;;;;;21.77;14.10;;;6.50;99.90;;;;;;5035094;28;20231;-72
2021/11/09 07:49:39;;;;;;;24.17;16.43;;;6.60;99.90;;;;;;5046576;28;20889;-72
2021/11/09 07:52:07;;;;;;;31.37;16.00;;;6.60;99.90;;;;;;5044675;28;20615;-72
2021/11/09 07:54:35;;;;;;;27.27;15.57;;;6.60;99.90;;;;;;5042829;28;20466;-72
2021/11/09 07:57:05;;;;;;;27.47;16.17;;;6.70;99.90;;;;;;5046034;28;20526;-72
2021/11/09 07:59:37;;;;;;;29.07;16.20;;;6.70;99.90;;;;;;5049609;28;20467;-73
2021/11/09 08:02:05;;;;;;;26.37;15.67;;;6.80;99.90;;;;;;5037712;28;20466;-73
2021/11/09 08:04:52;;;;;;;22.70;12.93;;;6.80;99.90;;;;;;5035710;28;20437;-72
2021/11/09 08:07:18;;;;;;;23.77;15.00;;;6.90;99.90;;;;;;5038962;28;20491;-71
2021/11/09 08:09:44;;;;;;;19.70;9.57;;;6.90;99.90;;;;;;5033842;28;20455;-72
2021/11/09 08:12:10;;;;;;;14.17;10.03;;;7.00;99.90;;;;;;5044100;28;20449;-72
2021/11/09 08:14:37;;;;;;;16.20;9.63;;;7.10;99.90;;;;;;5042359;28;20299;-73
2021/11/09 08:17:04;;;;;;;13.97;8.27;;;7.10;99.90;;;;;;5036278;28;20438;-73
2021/11/09 08:19:30;;;;;;;16.53;10.07;;;7.20;99.90;;;;;;5037559;28;20469;-73
2021/11/09 08:21:57;;;;;;;15.57;8.87;;;7.30;99.90;;;;;;5037623;28;20538;-73
2021/11/09 08:24:24;;;;;;;18.23;8.33;;;7.40;99.90;;;;;;5039976;28;20179;-73
2021/11/09 08:26:51;;;;;;;16.90;8.17;;;7.50;99.90;;;;;;5032072;28;20510;-72
2021/11/09 08:29:21;;;;;;;15.83;8.00;;;7.60;99.90;;;;;;5043739;28;20437;-72
2021/11/09 08:31:47;;;;;;;13.30;8.50;;;7.60;99.90;;;;;;5048231;28;20446;-72
2021/11/09 08:34:15;;;;;;;21.53;7.97;;;7.70;99.90;;;;;;5040899;28;20556;-72
2021/11/09 08:36:44;;;;;;;11.73;7.90;;;7.70;99.90;;;;;;5039283;28;20438;-72
2021/11/09 08:39:12;;;;;;;16.83;7.23;;;7.80;99.90;;;;;;5039765;28;20434;-72
2021/11/09 08:44:35;;;;;;;11.90;8.43;;;8.00;99.90;;;;;;5117620;27;20536;-71
2021/11/09 08:47:02;;;;;;;16.47;7.43;;;8.10;99.90;;;;;;5118235;27;20525;-71
2021/11/09 08:49:30;;;;;;;11.07;7.37;;;8.10;99.90;;;;;;5113103;28;20476;-73
2021/11/09 08:52:00;;;;;;;12.70;7.13;;;8.20;99.90;;;;;;5120055;28;20494;-71
2021/11/09 08:54:33;;;;;;;12.13;6.80;;;8.30;99.90;;;;;;5108395;28;20396;-71
2021/11/09 08:57:10;;;;;;;12.10;7.17;;;8.40;99.90;;;;;;5099330;28;20919;-73
2021/11/09 09:05:12;;;;;;;10.27;6.37;;;8.60;99.90;;;;;;5100790;28;20491;-72
2021/11/09 09:07:38;;;;;;;10.37;6.10;;;8.70;99.90;;;;;;5113654;28;20477;-73
2021/11/09 09:10:06;;;;;;;11.07;5.27;;;8.80;99.90;;;;;;5116555;28;20422;-73
2021/11/09 09:12:34;;;;;;;10.83;5.53;;;8.80;99.90;;;;;;5120762;28;20805;-71
2021/11/09 09:15:00;;;;;;;8.93;5.70;;;8.90;99.90;;;;;;5117492;28;20526;-71
2021/11/09 09:17:26;;;;;;;8.67;6.70;;;9.00;99.90;;;;;;5109731;28;20451;-72
2021/11/09 09:19:57;;;;;;;8.20;6.10;;;9.00;99.90;;;;;;5120005;27;20179;-72
2021/11/09 09:22:28;;;;;;;10.20;5.30;;;9.00;99.90;;;;;;5130307;27;20462;-73
2021/11/09 09:25:06;;;;;;;9.20;6.70;;;9.10;99.90;;;;;;5137155;27;20454;-73
2021/11/09 09:57:51;;;;;;;7.70;4.97;;;9.80;99.90;;;;;;5094492;28;20766;-73
2021/11/09 10:00:18;;;;;;;9.23;4.67;;;9.80;99.90;;;;;;5083970;28;20433;-72
2021/11/09 10:02:59;;;;;;;8.27;4.37;;;9.90;99.90;;;;;;5087308;28;20192;-73
2021/11/09 10:05:26;;;;;;;6.80;4.60;;;9.90;99.90;;;;;;5080488;28;20426;-73
2021/11/09 10:07:55;;;;;;;8.50;4.70;;;9.80;99.90;;;;;;5075698;28;20997;-72
2021/11/09 10:15:49;;;;;;;12.30;5.00;;;9.90;99.90;;;;;;5057805;28;20539;-73
2021/11/09 10:18:16;;;;;;;6.80;4.20;;;9.90;99.90;;;;;;5051819;28;20433;-73
2021/11/09 10:20:50;;;;;;;5.73;3.63;;;10.00;99.90;;;;;;5057907;28;20431;-72
2021/11/09 10:23:19;;;;;;;4.07;3.60;;;10.00;99.90;;;;;;5066605;28;20825;-73
2021/11/09 10:25:47;;;;;;;7.50;4.73;;;10.00;99.90;;;;;;5048407;28;20436;-73
2021/11/09 10:28:18;;;;;;;7.67;4.10;;;10.00;99.90;;;;;;5060977;28;20474;-73
2021/11/09 10:30:55;;;;;;;5.13;3.30;;;10.10;99.90;;;;;;5064911;28;20433;-73
2021/11/09 10:33:24;;;;;;;7.80;3.63;;;10.10;99.90;;;;;;5054060;28;20499;-72
2021/11/09 10:35:51;;;;;;;6.57;3.80;;;10.10;99.90;;;;;;5065449;28;20397;-73
2021/11/09 10:38:17;;;;;;;7.73;3.77;;;10.10;99.90;;;;;;5061107;28;20434;-73
2021/11/09 10:40:48;;;;;;;4.90;3.50;;;10.20;99.90;;;;;;5065138;28;20955;-73
2021/11/09 10:43:14;;;;;;;5.23;3.57;;;10.10;99.90;;;;;;5064679;28;20422;-73
2021/11/09 10:45:40;;;;;;;6.67;3.67;;;10.20;99.90;;;;;;5047555;28;20406;-73
2021/11/09 10:48:09;;;;;;;6.30;3.40;;;10.20;99.90;;;;;;5064708;28;21022;-73
2021/11/09 10:50:39;;;;;;;7.67;4.60;;;10.20;99.90;;;;;;5065356;28;20909;-74
2021/11/09 10:53:15;;;;;;;7.83;3.90;;;10.30;99.90;;;;;;5068107;28;20460;-73
2021/11/09 10:59:25;;;;;;;4.20;2.90;;;10.40;99.90;;;;;;5045608;28;21102;-72
2021/11/09 11:03:18;;;;;;;4.90;3.40;;;10.40;99.90;;;;;;5035255;28;20472;-71
2021/11/09 11:04:44;;;;;;;5.87;2.87;;;10.40;99.90;;;;;;5047914;28;20769;-72
2021/11/09 11:07:13;;;;;;;5.30;3.23;;;10.40;99.90;;;;;;5046306;28;20438;-71
2021/11/09 11:09:42;;;;;;;6.63;3.00;;;10.50;99.90;;;;;;5048904;28;20168;-71
2021/11/09 11:12:10;;;;;;;6.73;3.30;;;10.50;99.90;;;;;;5048259;28;20947;-73
2021/11/09 11:14:38;;;;;;;7.83;2.33;;;10.50;99.90;;;;;;5047357;28;20441;-72
2021/11/09 11:17:09;;;;;;;5.40;3.03;;;10.60;99.90;;;;;;5047805;28;20488;-72
2021/11/09 11:19:39;;;;;;;4.57;2.90;;;10.60;99.90;;;;;;5044443;28;20478;-72
2021/11/09 11:22:08;;;;;;;5.37;3.13;;;10.60;99.90;;;;;;5039663;28;20942;-72
2021/11/09 11:24:36;;;;;;;6.13;3.33;;;10.70;99.90;;;;;;5055318;28;20457;-72
2021/11/09 11:27:04;;;;;;;5.27;2.80;;;10.70;99.90;;;;;;5054550;28;20418;-72
2021/11/09 11:29:31;;;;;;;4.83;2.60;;;10.70;99.90;;;;;;5058126;28;20520;-72
2021/11/09 11:31:59;;;;;;;6.53;3.67;;;10.80;99.90;;;;;;5068013;28;20394;-72
2021/11/09 11:34:25;;;;;;;7.47;3.67;;;10.70;99.90;;;;;;5056225;28;20434;-72
2021/11/09 11:36:53;;;;;;;7.13;2.57;;;10.70;99.90;;;;;;5047503;28;20418;-72
2021/11/09 11:39:24;;;;;;;9.00;3.20;;;10.70;99.90;;;;;;5047729;28;20994;-72
2021/11/09 11:41:54;;;;;;;8.87;4.07;;;10.70;99.90;;;;;;5047911;28;20423;-72
2021/11/09 11:44:24;;;;;;;5.40;3.33;;;10.70;99.90;;;;;;5043494;28;20521;-72
2021/11/09 11:46:52;;;;;;;3.30;2.80;;;10.80;99.90;;;;;;5046302;28;20525;-73
2021/11/09 11:49:22;;;;;;;7.03;3.90;;;10.80;99.90;;;;;;5045811;28;21096;-73
2021/11/09 11:54:49;;;;;;;5.53;3.30;;;10.80;99.90;;;;;;5065677;28;20541;-73
2021/11/09 12:00:56;;;;;;;7.10;3.80;;;10.70;99.90;;;;;;5099462;27;20626;-72
2021/11/09 12:06:00;;;;;;;7.30;4.40;;;10.80;99.90;;;;;;5065703;28;20528;-72
2021/11/09 12:08:44;;;;;;;8.53;3.30;;;10.80;99.90;;;;;;5048227;28;20418;-72
2021/11/09 12:11:35;;;;;;;6.07;3.23;;;10.80;99.90;;;;;;5046216;28;20472;-73
2021/11/09 12:16:47;;;;;;;4.07;2.10;;;10.90;99.90;;;;;;5057224;28;21056;-72
2021/11/09 12:22:18;;;;;;;6.80;3.40;;;10.90;99.90;;;;;;5066858;28;20544;-74
2021/11/09 12:24:51;;;;;;;8.00;3.00;;;10.90;99.90;;;;;;5069689;28;20849;-73
2021/11/09 12:27:18;;;;;;;7.27;3.37;;;10.90;99.90;;;;;;5059815;28;20398;-74
2021/11/09 12:29:47;;;;;;;11.33;5.13;;;10.90;99.90;;;;;;5032649;28;20514;-73
2021/11/09 12:32:35;;;;;;;6.87;4.00;;;10.90;99.90;;;;;;5047407;28;20430;-74
2021/11/09 12:37:43;;;;;;;5.67;3.70;;;10.90;99.90;;;;;;5064876;28;20652;-72
2021/11/09 12:48:55;;;;;;;14.37;6.00;;;11.00;99.90;;;;;;5065865;28;21073;-72
2021/11/09 12:51:27;;;;;;;4.10;3.70;;;11.00;99.90;;;;;;5041091;28;20514;-72
2021/11/09 12:53:56;;;;;;;11.00;6.63;;;11.00;99.90;;;;;;5043870;28;20436;-73
2021/11/09 12:56:28;;;;;;;5.00;3.67;;;11.00;99.90;;;;;;5042553;28;20517;-73
2021/11/09 12:58:59;;;;;;;5.33;3.43;;;11.00;99.90;;;;;;5044600;28;20473;-73
2021/11/09 13:04:14;;;;;;;3.80;2.47;;;11.10;99.90;;;;;;5048253;28;21069;-71
2021/11/09 13:09:20;;;;;;;4.50;2.50;;;11.10;99.90;;;;;;5056340;28;20521;-72
2021/11/09 13:11:50;;;;;;;9.33;3.20;;;11.20;99.90;;;;;;5061343;28;20422;-73
2021/11/09 13:14:18;;;;;;;7.93;3.13;;;11.20;99.90;;;;;;5048406;28;20477;-73
2021/11/09 13:16:48;;;;;;;4.40;2.47;;;11.20;99.90;;;;;;5062061;28;20421;-73
2021/11/09 13:19:16;;;;;;;4.73;3.00;;;11.10;99.90;;;;;;5059284;28;20457;-73
2021/11/09 13:21:41;;;;;;;7.73;3.20;;;11.10;99.90;;;;;;5056848;28;20847;-73
2021/11/09 13:24:08;;;;;;;6.50;3.40;;;11.10;99.90;;;;;;5058428;28;20450;-73
2021/11/09 13:26:34;;;;;;;27.60;21.20;;;11.20;99.90;;;;;;5048745;28;20278;-73
2021/11/09 13:29:06;;;;;;;20.10;15.57;;;11.20;99.90;;;;;;5048009;28;20490;-73
2021/11/09 13:31:32;;;;;;;4.43;3.43;;;11.10;99.90;;;;;;5047444;28;20476;-73
2021/11/09 13:34:00;;;;;;;4.50;2.77;;;11.10;99.90;;;;;;5047771;28;20439;-73
2021/11/09 13:36:26;;;;;;;5.47;3.00;;;11.10;99.90;;;;;;5056459;28;20438;-73
2021/11/09 13:38:51;;;;;;;5.40;3.30;;;11.10;99.90;;;;;;5036838;28;20986;-73
2021/11/09 13:41:22;;;;;;;4.67;3.27;;;11.10;99.90;;;;;;5030403;28;20168;-73
2021/11/09 13:43:51;;;;;;;7.63;3.27;;;11.10;99.90;;;;;;5036848;28;20160;-73
2021/11/09 13:46:20;;;;;;;7.40;3.63;;;11.10;99.90;;;;;;5031775;28;20998;-73
2021/11/09 13:48:50;;;;;;;7.30;3.20;;;11.10;99.90;;;;;;5033418;28;20459;-73
2021/11/09 13:51:20;;;;;;;4.97;2.67;;;11.10;99.90;;;;;;5037772;28;20912;-74
2021/11/09 13:53:48;;;;;;;7.33;3.07;;;11.10;99.90;;;;;;5047150;28;20987;-73
2021/11/09 13:56:18;;;;;;;8.00;2.80;;;11.10;99.90;;;;;;5043275;28;20534;-73
2021/11/09 13:59:06;;;;;;;5.27;2.63;;;11.00;99.90;;;;;;5046817;28;20411;-73
2021/11/09 14:01:35;;;;;;;7.87;3.10;;;11.00;99.90;;;;;;5044231;28;20513;-73
2021/11/09 14:04:10;;;;;;;5.70;3.00;;;11.10;99.90;;;;;;5048379;28;20550;-74
2021/11/09 14:09:46;;;;;;;4.00;2.90;;;11.10;99.90;;;;;;5037780;28;20533;-74
2021/11/09 14:18:21;;;;;;;7.27;4.10;;;10.90;99.90;;;;;;5071761;27;21056;-72
2021/11/09 14:20:52;;;;;;;7.93;3.43;;;10.90;99.90;;;;;;5058665;28;20537;-72
2021/11/09 14:23:28;;;;;;;8.67;3.43;;;10.90;99.90;;;;;;5056248;28;20522;-72
2021/11/09 14:25:55;;;;;;;3.70;2.60;;;10.90;99.90;;;;;;5054722;28;20426;-72
2021/11/09 14:28:38;;;;;;;3.77;2.90;;;10.80;99.90;;;;;;5061311;28;20449;-72
2021/11/09 14:31:15;;;;;;;4.20;2.63;;;10.80;99.90;;;;;;5059631;28;20461;-73
2021/11/09 14:33:41;;;;;;;5.77;3.70;;;10.90;99.90;;;;;;5066531;28;20533;-72
2021/11/09 14:36:28;;;;;;;4.23;2.90;;;10.80;99.90;;;;;;5057214;28;20646;-73
2021/11/09 14:39:15;;;;;;;5.40;3.50;;;10.90;99.90;;;;;;5051815;28;20177;-72
2021/11/09 14:45:14;;;;;;;4.63;3.20;;;10.90;99.90;;;;;;5095272;27;20561;-72
2021/11/09 14:47:44;;;;;;;8.43;5.03;;;10.80;99.90;;;;;;5068956;28;20475;-72
2021/11/09 14:50:20;;;;;;;7.10;2.57;;;10.80;99.90;;;;;;5083999;28;20769;-72
2021/11/09 14:52:46;;;;;;;5.40;2.80;;;10.80;99.90;;;;;;5087762;28;20991;-72
2021/11/09 14:55:19;;;;;;;5.13;3.63;;;10.80;99.90;;;;;;5086885;28;20429;-72
2021/11/09 14:57:47;;;;;;;4.60;3.20;;;10.70;99.90;;;;;;5078512;28;20198;-72
2021/11/09 15:00:14;;;;;;;4.30;3.30;;;10.70;99.90;;;;;;5085402;28;20888;-72
2021/11/09 15:02:41;;;;;;;5.57;3.20;;;10.70;99.90;;;;;;5087372;28;20461;-72
2021/11/09 15:05:13;;;;;;;5.73;2.60;;;10.60;99.90;;;;;;5084762;28;20436;-72
2021/11/09 15:07:55;;;;;;;4.73;2.83;;;10.60;99.90;;;;;;5080521;28;20473;-72
2021/11/09 15:10:31;;;;;;;4.30;2.27;;;10.60;99.90;;;;;;5082133;28;20488;-72
2021/11/09 15:29:28;;;;;;;6.50;3.57;;;10.40;99.90;;;;;;5054759;28;20668;-74
2021/11/09 15:31:57;;;;;;;6.67;3.50;;;10.40;99.90;;;;;;5036678;28;21000;-75
2021/11/09 15:39:43;;;;;;;10.93;3.90;;;10.30;99.90;;;;;;5068835;28;20515;-72
2021/11/09 15:42:10;;;;;;;4.27;3.53;;;10.20;99.90;;;;;;5069371;28;20547;-74
2021/11/09 15:44:35;;;;;;;7.03;4.30;;;10.20;99.90;;;;;;5053338;28;20186;-72
2021/11/09 15:47:01;;;;;;;9.90;3.90;;;10.10;99.90;;;;;;5049594;28;20489;-74
2021/11/09 15:49:27;;;;;;;6.30;3.70;;;10.10;99.90;;;;;;5049212;28;20163;-74
2021/11/09 15:51:54;;;;;;;4.87;3.93;;;10.10;99.90;;;;;;5049309;28;20164;-74
2021/11/09 15:54:20;;;;;;;6.03;4.37;;;10.00;99.90;;;;;;5049358;28;20389;-72
2021/11/09 15:56:45;;;;;;;6.40;4.90;;;10.00;99.90;;;;;;5049095;28;20492;-72
2021/11/09 15:59:11;;;;;;;7.50;4.80;;;9.90;99.90;;;;;;5055081;28;20205;-72